Time;durP1;ratioP1;P1;durP2;ratioP2;P2;SDS_P1;SDS_P2;PMS_P1;PMS_P2;Temp;Humidity;BMP_temperature;BMP_pressure;BME280_temperature;BME280_humidity;BME280_pressure;Samples;Min_cycle;Max_cycle;Signal;HPM_P1;HPM_P2
2022/06/07 00:01:05;;;;;;;1.92;0.52;;;17.20;83.70;;;;;;5033334;28;20455;-84
2022/06/07 00:03:31;;;;;;;1.17;0.50;;;17.10;83.60;;;;;;5034224;28;20064;-84
2022/06/07 00:05:57;;;;;;;3.25;0.20;;;17.10;83.80;;;;;;5033348;28;20029;-84
2022/06/07 00:08:23;;;;;;;0.95;0.45;;;17.10;83.60;;;;;;5033912;28;20030;-85
2022/06/07 00:10:49;;;;;;;1.00;0.30;;;17.10;83.70;;;;;;5034075;28;20045;-85
2022/06/07 00:13:17;;;;;;;0.30;0.30;;;17.10;83.40;;;;;;5033657;28;20034;-83
2022/06/07 00:15:44;;;;;;;1.50;0.50;;;17.00;83.50;;;;;;5034331;28;20032;-85
2022/06/07 00:18:11;;;;;;;1.65;0.30;;;17.00;83.30;;;;;;5033272;28;20379;-87
2022/06/07 00:20:39;;;;;;;0.65;0.40;;;17.10;83.30;;;;;;5033697;28;20124;-87
2022/06/07 00:23:11;;;;;;;1.52;0.43;;;17.10;83.20;;;;;;5033745;28;20044;-89
2022/06/07 00:25:37;;;;;;;1.17;0.40;;;17.10;82.90;;;;;;5033956;28;20063;-86
2022/06/07 00:28:03;;;;;;;0.77;0.32;;;17.00;82.90;;;;;;5033771;28;20026;-86
2022/06/07 00:30:33;;;;;;;0.47;0.30;;;17.00;82.80;;;;;;5033930;28;20083;-85
2022/06/07 00:32:59;;;;;;;4.47;0.70;;;17.00;83.10;;;;;;5033585;28;20030;-85
2022/06/07 00:35:25;;;;;;;0.85;0.52;;;17.10;83.30;;;;;;5033941;28;20034;-87
2022/06/07 00:37:51;;;;;;;1.55;0.60;;;17.10;83.00;;;;;;5033128;28;20037;-86
2022/06/07 00:40:17;;;;;;;0.65;0.60;;;17.10;83.40;;;;;;5031812;28;20030;-85
2022/06/07 00:42:43;;;;;;;1.58;0.50;;;16.90;83.90;;;;;;5033017;28;20082;-85
2022/06/07 00:45:14;;;;;;;1.83;0.82;;;17.00;83.80;;;;;;5032894;28;20478;-85
2022/06/07 00:47:41;;;;;;;1.13;0.85;;;17.00;84.40;;;;;;5031579;28;20566;-84
2022/06/07 00:50:11;;;;;;;1.05;0.65;;;17.00;84.40;;;;;;5031758;28;20060;-85
2022/06/07 00:52:37;;;;;;;1.98;0.90;;;17.00;84.40;;;;;;5032829;28;20371;-84
2022/06/07 00:55:06;;;;;;;1.50;1.00;;;17.00;84.50;;;;;;5032508;28;20021;-85
2022/06/07 00:57:33;;;;;;;2.50;1.02;;;16.90;85.10;;;;;;5033590;28;20029;-85
2022/06/07 00:59:58;;;;;;;1.67;0.95;;;17.00;84.40;;;;;;5024355;28;20430;-84
2022/06/07 01:02:25;;;;;;;1.50;0.68;;;17.00;84.60;;;;;;5033132;28;20108;-88
2022/06/07 01:04:50;;;;;;;0.75;0.68;;;17.00;84.90;;;;;;5033298;28;20077;-87
2022/06/07 01:12:47;;;;;;;1.77;0.75;;;17.00;85.20;;;;;;5033125;28;20429;-84
2022/06/07 01:15:13;;;;;;;2.15;1.08;;;17.00;85.90;;;;;;5032284;28;20067;-84
2022/06/07 01:17:39;;;;;;;2.63;1.17;;;17.00;86.20;;;;;;5032635;28;20446;-85
2022/06/07 01:20:05;;;;;;;2.10;1.10;;;16.90;86.30;;;;;;5032372;28;20471;-85
2022/06/07 01:22:31;;;;;;;2.80;1.20;;;16.90;86.50;;;;;;5031511;28;20099;-85
2022/06/07 01:24:57;;;;;;;3.03;1.13;;;17.00;86.50;;;;;;5032521;28;20412;-85
2022/06/07 01:27:23;;;;;;;1.45;1.08;;;17.10;86.40;;;;;;5032715;28;20029;-85
2022/06/07 01:29:49;;;;;;;1.75;0.90;;;17.00;87.50;;;;;;5031962;28;20034;-85
2022/06/07 01:32:15;;;;;;;3.33;1.20;;;17.00;86.60;;;;;;5031279;28;20063;-85
2022/06/07 01:34:42;;;;;;;1.00;0.68;;;17.00;86.90;;;;;;5032114;28;20169;-86
2022/06/07 01:37:10;;;;;;;1.20;0.90;;;17.00;86.50;;;;;;5012066;28;20112;-86
2022/06/07 01:42:21;;;;;;;1.92;0.90;;;16.90;87.50;;;;;;5012950;28;20481;-86
2022/06/07 01:44:48;;;;;;;1.05;0.95;;;16.90;87.50;;;;;;5012383;28;20132;-86
2022/06/07 01:47:25;;;;;;;3.55;1.35;;;16.90;87.50;;;;;;5012369;28;20034;-85
2022/06/07 01:49:51;;;;;;;2.78;1.02;;;16.90;87.30;;;;;;5011109;28;20064;-85
2022/06/07 01:52:20;;;;;;;2.05;1.20;;;16.90;87.30;;;;;;5011344;28;20034;-84
2022/06/07 01:54:45;;;;;;;5.07;1.45;;;17.00;87.30;;;;;;5012867;28;20097;-84
2022/06/07 01:57:12;;;;;;;1.92;1.63;;;16.90;87.60;;;;;;5011948;28;20556;-84
2022/06/07 01:59:38;;;;;;;3.72;1.40;;;16.90;87.20;;;;;;5010918;28;20041;-86
2022/06/07 02:02:05;;;;;;;3.20;1.55;;;16.90;87.60;;;;;;5012081;28;20444;-85
2022/06/07 02:04:31;;;;;;;2.75;1.60;;;16.90;88.00;;;;;;5012196;28;20045;-85
2022/06/07 02:06:57;;;;;;;1.38;1.20;;;16.90;88.30;;;;;;5010798;28;20088;-85
2022/06/07 02:09:24;;;;;;;1.15;0.90;;;16.90;88.50;;;;;;5012165;28;20359;-87
2022/06/07 02:11:49;;;;;;;1.92;1.08;;;16.90;87.90;;;;;;5011596;28;20532;-85
2022/06/07 02:14:15;;;;;;;4.97;1.33;;;16.90;87.70;;;;;;5011712;28;20113;-85
2022/06/07 02:16:41;;;;;;;4.20;0.93;;;16.90;88.00;;;;;;5011700;28;20034;-85
2022/06/07 02:19:07;;;;;;;3.78;1.00;;;16.90;87.70;;;;;;5011959;28;20463;-84
2022/06/07 02:21:33;;;;;;;1.73;1.00;;;16.90;88.00;;;;;;5012122;28;20180;-85
2022/06/07 02:23:58;;;;;;;1.90;1.10;;;16.90;87.80;;;;;;5011654;28;20041;-85
2022/06/07 02:26:48;;;;;;;2.10;1.05;;;16.90;88.10;;;;;;5011431;28;20037;-84
2022/06/07 02:29:28;;;;;;;1.98;1.00;;;16.90;88.00;;;;;;5011398;28;20372;-83
2022/06/07 02:32:01;;;;;;;3.13;1.02;;;16.80;87.70;;;;;;5011770;28;20053;-84
2022/06/07 02:34:27;;;;;;;3.40;0.93;;;16.80;88.20;;;;;;5011445;28;20028;-83
2022/06/07 02:36:56;;;;;;;1.95;0.80;;;16.80;88.20;;;;;;5011702;28;20105;-83
2022/06/07 02:39:24;;;;;;;1.73;0.80;;;16.80;88.70;;;;;;5012012;28;20117;-82
2022/06/07 02:41:50;;;;;;;1.00;0.80;;;16.80;88.80;;;;;;5011569;28;20030;-85
2022/06/07 02:44:16;;;;;;;2.42;0.80;;;16.80;88.60;;;;;;5011587;28;20034;-84
2022/06/07 02:46:42;;;;;;;3.97;0.80;;;16.80;88.20;;;;;;5011345;28;20452;-85
2022/06/07 02:49:08;;;;;;;1.70;1.10;;;16.80;89.00;;;;;;5011311;28;20034;-85
2022/06/07 02:51:34;;;;;;;2.75;1.30;;;16.80;89.00;;;;;;5011952;28;20028;-84
2022/06/07 02:54:00;;;;;;;3.00;1.10;;;16.80;88.90;;;;;;5011254;28;20029;-81
2022/06/07 02:56:25;;;;;;;4.47;1.30;;;16.90;89.10;;;;;;5011167;28;20034;-83
2022/06/07 02:58:51;;;;;;;1.17;0.88;;;16.80;89.50;;;;;;5011017;28;20472;-82
2022/06/07 03:01:16;;;;;;;2.20;1.13;;;16.80;89.40;;;;;;5011369;28;20018;-85
2022/06/07 03:03:42;;;;;;;3.47;1.20;;;16.80;89.80;;;;;;5011914;28;20061;-84
2022/06/07 03:06:08;;;;;;;1.65;1.20;;;16.80;89.50;;;;;;5015294;28;20044;-87
2022/06/07 03:08:34;;;;;;;2.28;1.38;;;16.80;89.90;;;;;;5015420;28;20022;-84
2022/06/07 03:11:00;;;;;;;1.50;1.15;;;16.80;90.20;;;;;;5014367;28;20057;-85
2022/06/07 03:13:26;;;;;;;3.05;1.55;;;16.80;90.00;;;;;;5015001;28;20041;-84
2022/06/07 03:15:52;;;;;;;4.65;1.17;;;16.90;90.20;;;;;;5014233;28;20037;-82
2022/06/07 03:18:18;;;;;;;1.73;1.10;;;16.80;90.20;;;;;;5015532;28;20447;-84
2022/06/07 03:20:46;;;;;;;3.30;1.58;;;16.80;90.30;;;;;;5015026;28;20049;-83
2022/06/07 03:23:12;;;;;;;2.33;1.10;;;16.80;90.60;;;;;;5016503;28;20030;-84
2022/06/07 03:25:38;;;;;;;2.53;0.90;;;16.70;90.50;;;;;;5016990;28;20030;-82
2022/06/07 03:28:04;;;;;;;3.85;0.82;;;16.70;90.30;;;;;;5015410;28;20320;-84
2022/06/07 03:30:29;;;;;;;3.10;1.05;;;16.70;90.60;;;;;;5014136;28;20037;-83
2022/06/07 03:32:56;;;;;;;3.55;1.00;;;16.70;90.50;;;;;;5014509;28;20046;-82
2022/06/07 03:35:22;;;;;;;2.67;0.77;;;16.70;90.60;;;;;;5015186;28;20519;-84
2022/06/07 03:37:48;;;;;;;4.90;1.20;;;16.70;90.40;;;;;;5013610;28;20463;-83
2022/06/07 03:40:42;;;;;;;5.40;1.15;;;16.60;90.80;;;;;;5014307;28;20022;-84
2022/06/07 03:43:00;;;;;;;1.27;0.95;;;16.60;90.70;;;;;;5014181;28;20107;-83
2022/06/07 03:45:25;;;;;;;4.57;1.33;;;16.60;90.90;;;;;;5013701;28;20033;-83
2022/06/07 03:47:51;;;;;;;1.17;1.00;;;16.60;90.70;;;;;;5014017;28;20034;-82
2022/06/07 03:50:17;;;;;;;2.85;1.15;;;16.60;90.90;;;;;;5014480;28;20457;-83
2022/06/07 03:52:42;;;;;;;2.10;1.10;;;16.50;91.30;;;;;;5014183;28;20515;-83
2022/06/07 03:55:08;;;;;;;1.70;0.80;;;16.50;91.30;;;;;;5014211;28;20445;-83
2022/06/07 03:57:34;;;;;;;2.15;1.08;;;16.50;91.30;;;;;;5015317;28;20101;-83
2022/06/07 04:00:00;;;;;;;2.40;1.20;;;16.50;91.40;;;;;;5013988;28;20069;-81
2022/06/07 04:02:26;;;;;;;2.47;1.10;;;16.50;91.50;;;;;;5013963;28;20034;-83
2022/06/07 04:04:51;;;;;;;3.58;1.40;;;16.50;91.40;;;;;;5013960;28;20034;-83
2022/06/07 04:10:01;;;;;;;3.80;1.35;;;16.60;91.70;;;;;;5014004;28;20117;-87
2022/06/07 04:12:27;;;;;;;3.15;1.52;;;16.60;91.70;;;;;;5015050;28;20109;-88
2022/06/07 04:14:53;;;;;;;3.72;1.35;;;16.60;91.80;;;;;;5014912;28;20026;-86
2022/06/07 04:17:18;;;;;;;5.07;1.92;;;16.60;91.90;;;;;;5012954;28;20026;-88
2022/06/07 04:19:44;;;;;;;8.73;1.70;;;16.60;92.10;;;;;;5013484;28;20423;-89
2022/06/07 04:22:11;;;;;;;1.77;1.58;;;16.70;92.00;;;;;;5014700;28;20046;-87
2022/06/07 04:24:37;;;;;;;2.50;1.75;;;16.60;92.00;;;;;;5014676;28;20061;-90
2022/06/07 04:27:05;;;;;;;2.58;1.70;;;16.60;92.10;;;;;;5014468;28;20036;-88
2022/06/07 04:29:31;;;;;;;2.53;1.80;;;16.60;92.10;;;;;;5014366;28;20030;-89
2022/06/07 04:31:57;;;;;;;4.95;1.80;;;16.60;92.20;;;;;;5014024;28;20129;-85
2022/06/07 04:34:23;;;;;;;2.90;1.40;;;16.60;92.50;;;;;;5013042;28;20058;-89
2022/06/07 04:36:48;;;;;;;3.13;1.90;;;16.60;92.30;;;;;;5014522;28;20050;-85
2022/06/07 04:39:14;;;;;;;3.88;1.50;;;16.60;92.40;;;;;;5013830;28;20101;-85
2022/06/07 04:41:40;;;;;;;6.35;1.30;;;16.70;92.20;;;;;;5014290;28;20042;-86
2022/06/07 04:44:06;;;;;;;3.13;1.10;;;16.60;92.50;;;;;;5014084;28;20126;-87
2022/06/07 04:46:32;;;;;;;4.00;1.40;;;16.50;92.50;;;;;;5013724;28;20096;-85
2022/06/07 04:48:58;;;;;;;6.25;1.23;;;16.60;92.60;;;;;;5013540;28;20330;-85
2022/06/07 04:51:31;;;;;;;1.30;1.05;;;16.60;92.60;;;;;;5014131;28;20037;-86
2022/06/07 04:53:58;;;;;;;3.08;1.08;;;16.70;92.40;;;;;;5013485;28;20077;-85
2022/06/07 04:56:32;;;;;;;3.17;1.80;;;16.70;92.40;;;;;;5013104;28;20113;-82
2022/06/07 04:58:59;;;;;;;3.95;1.30;;;16.60;92.40;;;;;;5013143;28;20325;-82
2022/06/07 05:01:31;;;;;;;3.17;0.90;;;16.70;92.50;;;;;;5013130;28;20042;-84
2022/06/07 05:03:57;;;;;;;3.70;1.75;;;16.60;92.70;;;;;;5012305;28;20467;-81
2022/06/07 05:06:31;;;;;;;8.45;1.38;;;16.70;92.70;;;;;;5013266;28;20035;-80
2022/06/07 05:09:00;;;;;;;4.20;1.25;;;16.70;92.80;;;;;;5012729;28;20030;-82
2022/06/07 05:11:27;;;;;;;2.35;1.15;;;16.80;92.80;;;;;;5013012;28;20033;-83
2022/06/07 05:13:57;;;;;;;3.03;1.50;;;16.70;93.10;;;;;;5012747;28;20520;-80
2022/06/07 05:16:24;;;;;;;4.28;1.27;;;16.80;93.30;;;;;;5012726;28;20137;-81
2022/06/07 05:18:53;;;;;;;5.10;2.83;;;16.70;93.10;;;;;;5013368;28;20037;-83
2022/06/07 05:21:21;;;;;;;7.57;3.08;;;16.80;93.30;;;;;;5013327;28;20041;-82
2022/06/07 05:23:47;;;;;;;5.53;3.53;;;16.80;93.40;;;;;;5011942;28;20026;-85
2022/06/07 05:26:15;;;;;;;4.40;2.00;;;16.80;93.20;;;;;;5012665;28;20117;-82
2022/06/07 05:28:43;;;;;;;14.15;7.88;;;16.90;93.50;;;;;;5012455;28;20030;-83
2022/06/07 05:31:10;;;;;;;8.70;4.05;;;16.80;93.50;;;;;;5012518;28;20046;-82
2022/06/07 05:33:36;;;;;;;3.63;1.40;;;17.00;93.50;;;;;;5012061;28;20040;-84
2022/06/07 05:36:06;;;;;;;5.03;1.33;;;17.00;93.30;;;;;;5011790;28;20121;-84
2022/06/07 05:38:32;;;;;;;3.45;1.70;;;17.10;93.10;;;;;;5012565;28;20041;-84
2022/06/07 05:40:58;;;;;;;8.07;1.85;;;17.30;93.10;;;;;;5011399;28;20032;-92
2022/06/07 05:43:24;;;;;;;6.03;1.58;;;17.40;92.80;;;;;;5012139;28;20030;-82
2022/06/07 05:45:51;;;;;;;4.95;1.65;;;17.50;92.70;;;;;;5012051;28;20288;-78
2022/06/07 05:48:19;;;;;;;5.03;1.70;;;17.70;92.50;;;;;;5012977;28;20026;-84
2022/06/07 05:50:50;;;;;;;3.47;1.40;;;17.90;92.10;;;;;;5011428;28;20375;-84
2022/06/07 05:53:17;;;;;;;3.92;1.30;;;18.20;91.80;;;;;;5012130;28;20476;-83
2022/06/07 05:55:42;;;;;;;5.38;1.60;;;18.40;91.60;;;;;;5014269;28;20038;-89
2022/06/07 05:58:08;;;;;;;1.80;1.13;;;18.60;91.30;;;;;;5013789;28;20060;-90
2022/06/07 06:00:35;;;;;;;3.60;1.63;;;18.70;91.10;;;;;;5015760;28;20029;-87
2022/06/07 06:03:01;;;;;;;2.72;1.33;;;18.70;91.10;;;;;;5014046;28;20383;-87
2022/06/07 06:05:26;;;;;;;6.93;2.97;;;18.60;91.00;;;;;;5013198;28;20045;-88
2022/06/07 06:10:36;;;;;;;7.93;1.73;;;18.70;90.60;;;;;;5012929;28;20385;-88
2022/06/07 06:13:02;;;;;;;2.53;1.58;;;18.70;90.50;;;;;;5012991;28;20018;-86
2022/06/07 06:15:28;;;;;;;7.35;1.55;;;18.70;90.50;;;;;;5012579;28;20030;-90
2022/06/07 06:17:55;;;;;;;4.20;1.50;;;18.80;90.30;;;;;;5012643;28;20036;-90
2022/06/07 06:20:22;;;;;;;4.00;1.60;;;18.70;90.30;;;;;;5012274;28;20400;-86
2022/06/07 06:22:48;;;;;;;5.60;1.40;;;18.70;90.30;;;;;;5012538;28;20347;-89
2022/06/07 06:25:14;;;;;;;3.40;1.42;;;18.70;90.20;;;;;;5012823;28;20511;-92
2022/06/07 06:27:39;;;;;;;5.97;1.83;;;18.60;90.10;;;;;;5013621;28;20072;-89
2022/06/07 06:30:06;;;;;;;8.35;2.38;;;18.60;90.20;;;;;;5012763;28;20132;-89
2022/06/07 06:32:33;;;;;;;5.75;1.35;;;18.70;90.30;;;;;;5015140;28;20026;-88
2022/06/07 06:34:59;;;;;;;4.57;2.90;;;18.70;90.20;;;;;;5012762;28;20034;-89
2022/06/07 06:37:27;;;;;;;6.57;1.92;;;18.80;90.20;;;;;;5012537;28;20468;-85
2022/06/07 06:39:53;;;;;;;4.22;1.20;;;18.80;90.20;;;;;;5011445;28;20099;-87
2022/06/07 06:42:19;;;;;;;2.25;1.20;;;18.90;90.10;;;;;;5012579;28;20037;-85
2022/06/07 06:44:46;;;;;;;4.25;1.48;;;18.90;89.90;;;;;;5011434;28;20030;-84
2022/06/07 06:47:13;;;;;;;12.30;4.30;;;18.90;89.90;;;;;;5011489;28;20034;-86
2022/06/07 06:49:40;;;;;;;7.68;2.03;;;18.90;89.90;;;;;;5011391;28;20030;-85
2022/06/07 06:52:07;;;;;;;3.38;1.30;;;18.70;89.50;;;;;;5010663;28;20126;-90
2022/06/07 06:54:34;;;;;;;5.78;1.30;;;18.70;89.50;;;;;;5011634;28;20113;-89
2022/06/07 06:57:00;;;;;;;6.15;1.30;;;18.80;89.10;;;;;;5011338;28;20113;-86
2022/06/07 06:59:26;;;;;;;4.78;1.20;;;18.80;88.80;;;;;;5012548;28;20269;-86
2022/06/07 07:01:53;;;;;;;5.03;1.48;;;18.90;88.50;;;;;;5011887;28;20306;-88
2022/06/07 07:04:20;;;;;;;4.40;1.42;;;18.90;88.50;;;;;;5012550;28;20026;-89
2022/06/07 07:06:47;;;;;;;5.82;1.48;;;19.10;88.30;;;;;;5013425;28;20135;-90
2022/06/07 07:09:14;;;;;;;3.10;1.42;;;19.20;87.80;;;;;;5013142;28;20049;-91
2022/06/07 07:11:47;;;;;;;7.07;1.27;;;19.20;87.60;;;;;;5012660;28;20029;-90
2022/06/07 07:14:13;;;;;;;5.57;1.50;;;19.30;87.30;;;;;;5012670;28;20034;-90
2022/06/07 07:16:45;;;;;;;2.60;1.17;;;19.50;86.80;;;;;;5012038;28;20029;-92
2022/06/07 07:19:13;;;;;;;2.05;1.08;;;19.60;85.80;;;;;;5013409;28;20050;-88
2022/06/07 07:21:43;;;;;;;5.20;1.15;;;19.70;85.20;;;;;;5015058;28;20026;-89
2022/06/07 07:24:29;;;;;;;4.05;1.10;;;19.80;85.20;;;;;;5013699;28;20030;-88
2022/06/07 07:26:58;;;;;;;4.63;1.20;;;20.00;83.40;;;;;;5011350;28;20030;-90
2022/06/07 07:29:24;;;;;;;3.97;1.13;;;20.00;80.70;;;;;;5012440;28;20099;-89
2022/06/07 07:31:50;;;;;;;3.08;0.98;;;20.00;79.40;;;;;;5011812;28;20140;-89
2022/06/07 07:34:17;;;;;;;4.63;0.85;;;20.10;79.90;;;;;;5011933;28;20053;-89
2022/06/07 07:36:49;;;;;;;2.63;1.13;;;20.10;79.80;;;;;;5012934;28;20022;-89
2022/06/07 07:39:16;;;;;;;2.47;0.77;;;20.40;79.20;;;;;;5012170;28;20042;-92
2022/06/07 07:41:51;;;;;;;2.08;0.70;;;20.50;77.40;;;;;;5011135;28;20038;-89
2022/06/07 07:44:17;;;;;;;2.45;0.75;;;20.50;76.60;;;;;;5012797;28;20038;-90
2022/06/07 07:46:44;;;;;;;3.60;0.80;;;20.50;76.20;;;;;;4993248;28;20031;-89
2022/06/07 07:49:14;;;;;;;3.33;1.58;;;20.60;75.50;;;;;;4996794;28;20045;-89
2022/06/07 07:51:42;;;;;;;2.03;0.90;;;20.40;74.10;;;;;;5014669;28;20117;-88
2022/06/07 07:54:10;;;;;;;;;;;20.50;74.00;;;;;;5014950;28;20026;-89
2022/06/07 07:56:38;;;;;;;2.83;0.70;;;20.50;74.50;;;;;;5015223;28;19924;-89
2022/06/07 07:59:05;;;;;;;3.10;1.17;;;20.60;74.20;;;;;;5015186;28;20034;-91
2022/06/07 08:01:33;;;;;;;11.88;0.98;;;20.90;74.00;;;;;;5015737;28;20022;-91
2022/06/07 08:04:01;;;;;;;3.17;1.15;;;21.20;72.00;;;;;;5016780;28;20113;-92
2022/06/07 08:06:27;;;;;;;;;;;21.50;72.00;;;;;;5015595;28;20434;-90
2022/06/07 08:08:57;;;;;;;6.38;1.63;;;21.10;70.00;;;;;;5017052;28;19909;-91
2022/06/07 08:11:27;;;;;;;2.55;1.10;;;21.80;69.70;;;;;;5015293;28;20022;-88
2022/06/07 08:13:53;;;;;;;3.85;0.70;;;22.40;69.70;;;;;;5015533;28;20095;-88
2022/06/07 08:16:19;;;;;;;2.03;0.80;;;22.90;65.80;;;;;;5015695;28;20030;-90
2022/06/07 08:18:46;;;;;;;3.33;0.98;;;22.70;65.50;;;;;;5017127;28;20029;-89
2022/06/07 08:21:21;;;;;;;2.47;0.65;;;23.10;66.70;;;;;;5015633;28;20100;-87
2022/06/07 08:23:49;;;;;;;3.63;0.95;;;23.80;66.40;;;;;;5015401;28;20069;-87
2022/06/07 08:26:17;;;;;;;2.58;1.00;;;23.90;62.20;;;;;;5016621;28;20034;-89
2022/06/07 08:28:44;;;;;;;2.38;0.90;;;24.20;61.30;;;;;;5016424;28;20114;-89
2022/06/07 08:31:19;;;;;;;2.25;0.82;;;24.00;62.00;;;;;;5016650;28;20045;-87
2022/06/07 08:39:17;;;;;;;9.05;1.30;;;23.10;62.60;;;;;;5015468;28;20052;-89
2022/06/07 08:42:21;;;;;;;0.90;0.70;;;23.30;62.20;;;;;;5014808;28;20056;-88
2022/06/07 08:45:05;;;;;;;2.50;0.70;;;22.70;63.10;;;;;;5013458;28;20514;-86
2022/06/07 08:47:51;;;;;;;1.60;1.00;;;22.80;63.30;;;;;;5014587;28;20062;-87
2022/06/07 08:50:22;;;;;;;3.17;1.23;;;22.30;64.80;;;;;;5014181;28;20124;-89
2022/06/07 08:52:52;;;;;;;2.20;1.30;;;22.10;65.10;;;;;;5014338;28;20034;-90
2022/06/07 08:55:26;;;;;;;2.33;1.02;;;22.10;65.70;;;;;;5014403;28;20045;-88
2022/06/07 08:57:58;;;;;;;3.35;1.00;;;22.20;66.00;;;;;;5014576;28;20041;-91
2022/06/07 09:00:28;;;;;;;6.82;1.48;;;22.00;66.70;;;;;;5014251;28;20372;-93
2022/06/07 09:03:32;;;;;;;3.95;1.10;;;21.90;67.10;;;;;;5013507;28;20050;-88
2022/06/07 09:06:01;;;;;;;3.00;0.98;;;22.00;67.40;;;;;;5013396;28;20026;-89
2022/06/07 09:08:35;;;;;;;3.30;1.20;;;22.00;68.10;;;;;;5013978;28;20030;-90
2022/06/07 09:14:11;;;;;;;3.90;1.40;;;21.70;69.00;;;;;;5019714;28;20133;-86
2022/06/07 09:16:42;;;;;;;2.95;1.10;;;21.40;69.70;;;;;;5014848;28;20120;-90
2022/06/07 09:19:15;;;;;;;1.70;0.90;;;21.30;70.20;;;;;;5014560;28;20105;-90
2022/06/07 09:21:43;;;;;;;5.90;2.13;;;21.20;70.50;;;;;;5014727;28;20037;-89
2022/06/07 09:24:20;;;;;;;6.35;2.05;;;21.20;70.40;;;;;;5013876;28;20026;-91
2022/06/07 09:26:46;;;;;;;3.55;1.23;;;21.30;70.40;;;;;;5012878;28;20033;-87
2022/06/07 09:29:15;;;;;;;5.20;1.00;;;21.20;70.50;;;;;;5013497;28;20375;-87
2022/06/07 09:31:43;;;;;;;2.33;1.63;;;21.20;70.00;;;;;;5014598;28;20046;-89
2022/06/07 09:34:26;;;;;;;3.67;1.10;;;21.10;70.20;;;;;;5015917;28;20029;-90
2022/06/07 09:37:04;;;;;;;2.83;1.30;;;21.20;69.40;;;;;;5013630;28;20026;-88
2022/06/07 09:39:38;;;;;;;4.22;1.25;;;21.10;68.40;;;;;;5013724;28;20026;-89
2022/06/07 09:42:22;;;;;;;4.47;1.05;;;21.10;67.40;;;;;;5014294;28;20049;-90
2022/06/07 09:44:59;;;;;;;2.15;1.20;;;21.10;66.90;;;;;;5013539;28;20318;-90
2022/06/07 09:47:31;;;;;;;2.03;1.23;;;21.20;65.50;;;;;;5013103;28;20084;-87
2022/06/07 09:50:11;;;;;;;4.20;1.42;;;21.30;66.00;;;;;;5013490;28;20088;-89
2022/06/07 09:52:50;;;;;;;3.72;1.40;;;21.60;65.80;;;;;;5014312;28;20064;-88
2022/06/07 09:55:15;;;;;;;1.48;0.90;;;21.80;64.30;;;;;;5014067;28;20038;-90
2022/06/07 09:57:49;;;;;;;4.93;0.65;;;21.60;64.00;;;;;;5014734;28;20026;-87
2022/06/07 10:00:29;;;;;;;4.82;0.70;;;21.90;64.50;;;;;;5014245;28;20044;-89
2022/06/07 10:03:07;;;;;;;2.50;0.98;;;22.10;63.70;;;;;;5015378;28;20147;-89
2022/06/07 10:05:39;;;;;;;4.22;1.23;;;22.30;64.60;;;;;;5016152;28;20092;-87
2022/06/07 10:08:16;;;;;;;2.50;0.70;;;22.40;63.90;;;;;;5015585;28;20097;-87
2022/06/07 10:11:21;;;;;;;4.47;1.05;;;22.20;63.30;;;;;;5015372;28;20033;-88
2022/06/07 10:14:09;;;;;;;4.15;1.00;;;22.40;63.80;;;;;;5015155;28;20353;-88
2022/06/07 10:16:35;;;;;;;1.70;0.85;;;22.40;63.70;;;;;;5015361;28;20033;-87
2022/06/07 10:19:01;;;;;;;5.00;0.95;;;22.50;63.80;;;;;;5013994;28;20057;-87
2022/06/07 10:22:00;;;;;;;3.17;1.25;;;22.40;64.20;;;;;;5018458;28;20041;-88
2022/06/07 10:24:52;;;;;;;2.08;0.65;;;22.20;64.80;;;;;;5013549;28;20050;-88
2022/06/07 10:27:29;;;;;;;2.47;0.85;;;22.30;64.90;;;;;;5013548;28;20133;-84
2022/06/07 10:30:15;;;;;;;1.33;0.98;;;22.50;64.90;;;;;;5011304;28;20495;-86
2022/06/07 10:33:20;;;;;;;1.63;0.85;;;22.60;64.40;;;;;;5011950;28;20061;-84
2022/06/07 10:35:54;;;;;;;6.15;1.20;;;22.70;64.90;;;;;;5011074;28;20103;-87
2022/06/07 10:38:39;;;;;;;1.80;0.73;;;23.10;64.90;;;;;;5012584;28;20030;-86
2022/06/07 10:41:21;;;;;;;1.95;1.10;;;23.10;64.10;;;;;;5012182;28;20026;-84
2022/06/07 10:44:02;;;;;;;3.83;1.65;;;23.10;63.70;;;;;;5012019;28;20034;-83
2022/06/07 10:46:29;;;;;;;2.25;0.90;;;23.30;64.50;;;;;;5012102;28;20026;-86
2022/06/07 10:49:16;;;;;;;3.70;1.20;;;23.60;63.70;;;;;;5013852;28;20416;-88
2022/06/07 10:52:22;;;;;;;5.10;1.35;;;23.40;64.20;;;;;;5013007;28;20029;-84
2022/06/07 10:55:14;;;;;;;3.42;1.75;;;23.60;64.30;;;;;;5013172;28;20038;-84
2022/06/07 10:58:04;;;;;;;2.22;1.00;;;23.70;64.00;;;;;;5014320;28;20030;-87
2022/06/07 11:00:39;;;;;;;2.30;1.20;;;23.20;64.30;;;;;;5013104;28;20052;-88
2022/06/07 11:03:21;;;;;;;2.38;1.27;;;23.30;64.50;;;;;;5013954;28;20029;-86
2022/06/07 11:11:40;;;;;;;3.95;1.20;;;23.30;64.70;;;;;;5012656;28;20072;-87
2022/06/07 11:14:06;;;;;;;3.55;0.95;;;23.10;65.50;;;;;;5012058;28;20029;-87
2022/06/07 11:16:47;;;;;;;3.90;1.40;;;23.10;65.40;;;;;;5012831;28;20792;-86
2022/06/07 11:19:13;;;;;;;6.25;1.30;;;23.00;66.20;;;;;;5013007;28;20026;-88
2022/06/07 11:21:43;;;;;;;3.35;1.40;;;23.10;66.60;;;;;;5012754;28;20018;-86
2022/06/07 11:24:18;;;;;;;4.78;1.33;;;22.90;66.10;;;;;;5012814;28;20443;-90
2022/06/07 11:26:52;;;;;;;6.97;1.25;;;23.00;65.50;;;;;;5015754;28;20037;-88
2022/06/07 11:29:27;;;;;;;5.05;1.10;;;22.90;66.10;;;;;;5016317;28;20037;-89
2022/06/07 11:31:53;;;;;;;3.17;1.20;;;23.00;66.20;;;;;;5016055;28;20042;-89
2022/06/07 11:34:24;;;;;;;2.42;0.98;;;23.00;66.50;;;;;;5016128;28;20061;-89
2022/06/07 11:37:11;;;;;;;5.35;1.45;;;23.20;66.40;;;;;;5015600;28;20046;-88
2022/06/07 11:39:39;;;;;;;5.30;1.17;;;23.00;66.60;;;;;;5015129;28;20069;-89
2022/06/07 11:42:15;;;;;;;2.13;1.00;;;22.80;67.80;;;;;;5015289;28;20034;-90
2022/06/07 11:44:46;;;;;;;8.95;1.83;;;22.80;67.50;;;;;;5016393;28;20554;-89
2022/06/07 11:47:15;;;;;;;4.20;1.48;;;22.90;67.70;;;;;;5014834;28;20423;-89
2022/06/07 11:49:46;;;;;;;3.72;1.17;;;22.90;67.40;;;;;;5015531;28;20033;-88
2022/06/07 11:52:12;;;;;;;2.70;1.40;;;22.70;67.40;;;;;;5015702;28;20474;-89
2022/06/07 11:54:56;;;;;;;2.53;0.85;;;22.60;67.70;;;;;;5016028;28;20033;-90
2022/06/07 11:58:03;;;;;;;5.40;1.50;;;22.70;67.70;;;;;;5015837;28;20121;-91
2022/06/07 12:00:29;;;;;;;3.17;1.02;;;22.60;68.40;;;;;;5032285;28;20168;-88
2022/06/07 12:02:57;;;;;;;2.50;1.65;;;22.70;68.50;;;;;;5033478;28;20498;-90
2022/06/07 12:05:37;;;;;;;4.40;1.50;;;22.80;68.60;;;;;;5015671;28;20508;-87
2022/06/07 12:08:40;;;;;;;4.00;1.50;;;22.90;68.40;;;;;;5006228;28;20522;-90
2022/06/07 12:11:21;;;;;;;3.90;1.60;;;23.00;67.90;;;;;;5018440;28;20041;-87
2022/06/07 12:14:10;;;;;;;5.72;1.58;;;23.00;67.30;;;;;;5017589;28;20041;-87
2022/06/07 12:16:44;;;;;;;1.85;1.40;;;22.90;66.90;;;;;;5017916;28;20026;-87
2022/06/07 12:19:23;;;;;;;3.42;1.50;;;23.10;66.90;;;;;;5016794;28;20518;-91
2022/06/07 12:21:57;;;;;;;2.78;1.20;;;23.00;66.90;;;;;;5014899;28;20360;-86
2022/06/07 12:24:24;;;;;;;4.53;1.45;;;23.10;65.70;;;;;;5015014;28;20117;-86
2022/06/07 12:26:51;;;;;;;6.57;1.63;;;23.20;65.70;;;;;;5015521;28;20043;-86
2022/06/07 12:29:27;;;;;;;4.53;1.10;;;23.30;65.90;;;;;;5016077;28;20041;-87
2022/06/07 12:32:00;;;;;;;2.38;1.25;;;23.40;66.40;;;;;;5015353;28;20137;-86
2022/06/07 12:34:29;;;;;;;1.90;1.38;;;23.60;65.80;;;;;;5015208;28;20079;-88
2022/06/07 12:36:59;;;;;;;3.63;1.70;;;23.80;65.20;;;;;;5015206;28;20014;-88
2022/06/07 12:39:27;;;;;;;3.83;1.33;;;23.80;65.90;;;;;;5017083;28;20451;-88
2022/06/07 12:41:56;;;;;;;4.53;1.58;;;24.00;65.30;;;;;;5016588;28;20041;-89
2022/06/07 12:44:27;;;;;;;4.25;2.05;;;24.00;64.90;;;;;;5015556;28;20053;-89
2022/06/07 12:46:53;;;;;;;4.22;1.55;;;23.90;65.10;;;;;;5016001;28;20420;-88
2022/06/07 12:49:46;;;;;;;3.25;1.73;;;24.00;65.00;;;;;;5016974;28;20030;-87
2022/06/07 12:52:21;;;;;;;4.00;1.50;;;23.60;64.30;;;;;;5015927;28;20053;-89
2022/06/07 12:54:49;;;;;;;4.68;1.95;;;23.50;66.60;;;;;;5017625;28;20052;-88
2022/06/07 12:57:24;;;;;;;3.88;1.70;;;23.40;68.50;;;;;;5014702;28;20136;-84
2022/06/07 13:00:00;;;;;;;3.42;1.63;;;23.40;68.90;;;;;;5015073;28;20034;-88
2022/06/07 13:03:12;;;;;;;7.00;2.03;;;23.40;69.10;;;;;;5014187;28;20061;-88
2022/06/07 13:05:38;;;;;;;3.17;2.00;;;22.90;70.00;;;;;;5005595;28;20026;-87
2022/06/07 13:08:26;;;;;;;4.97;2.10;;;22.70;71.20;;;;;;5014456;28;20054;-88
2022/06/07 13:10:52;;;;;;;5.53;2.00;;;22.60;72.10;;;;;;5014478;28;20072;-87
2022/06/07 13:13:35;;;;;;;5.78;1.80;;;22.70;72.40;;;;;;5013755;28;20033;-89
2022/06/07 13:16:29;;;;;;;5.45;3.42;;;22.60;72.90;;;;;;5013842;28;20029;-91
2022/06/07 13:18:59;;;;;;;5.35;2.45;;;22.50;73.20;;;;;;5013975;28;20393;-89
2022/06/07 13:21:38;;;;;;;5.43;2.38;;;22.60;73.30;;;;;;5013227;28;20018;-90
2022/06/07 13:24:05;;;;;;;3.10;2.35;;;22.50;73.60;;;;;;5013600;28;20022;-89
2022/06/07 13:26:42;;;;;;;4.85;2.08;;;22.40;73.50;;;;;;5014192;28;20040;-90
2022/06/07 13:29:17;;;;;;;;;;;22.50;73.80;;;;;;5014297;28;20463;-89
2022/06/07 13:31:49;;;;;;;6.53;2.30;;;22.20;75.00;;;;;;5013421;28;19987;-90
2022/06/07 13:34:48;;;;;;;4.63;2.33;;;22.10;74.70;;;;;;5013699;28;20044;-89